Time;durP1;ratioP1;P1;durP2;ratioP2;P2;SDS_P1;SDS_P2;PMS_P1;PMS_P2;Temp;Humidity;BMP_temperature;BMP_pressure;BME280_temperature;BME280_humidity;BME280_pressure;Samples;Min_cycle;Max_cycle;Signal;HPM_P1;HPM_P2
2023/09/03 00:00:30;;;;;;;6.23;2.00;;;16.90;99.90;;;;;;4917957;29;20468;-66
2023/09/03 00:02:57;;;;;;;7.23;1.70;;;;;;;;;;4917978;29;20459;-66
2023/09/03 00:05:24;;;;;;;6.27;2.30;;;;;;;;;;4917148;29;20448;-67
2023/09/03 00:07:51;;;;;;;6.33;1.77;;;;;;;;;;4917604;29;20516;-66
2023/09/03 00:10:18;;;;;;;6.27;1.40;;;;;;;;;;4917669;29;20469;-66
2023/09/03 00:12:45;;;;;;;6.93;1.53;;;;;;;;;;4917969;29;20855;-69
2023/09/03 00:15:14;;;;;;;5.80;1.63;;;;;;;;;;4916060;29;20535;-67
2023/09/03 00:17:43;;;;;;;6.93;1.70;;;;;;;;;;4917609;29;20516;-66
2023/09/03 00:20:11;;;;;;;6.30;1.70;;;;;;;;;;4917561;29;20822;-66
2023/09/03 00:22:38;;;;;;;6.60;1.60;;;;;;;;;;4916928;29;20517;-66
2023/09/03 00:25:06;;;;;;;5.93;1.47;;;;;;;;;;4916998;29;20452;-66
2023/09/03 00:27:33;;;;;;;6.40;1.90;;;;;;;;;;4917616;29;20483;-66
2023/09/03 00:30:00;;;;;;;6.53;2.13;;;;;;;;;;4917077;29;20464;-66
2023/09/03 00:32:28;;;;;;;6.00;1.40;;;;;;;;;;4916195;29;20449;-66
2023/09/03 00:34:55;;;;;;;6.43;1.70;;;;;;;;;;4917257;29;20826;-66
2023/09/03 00:37:22;;;;;;;6.40;1.50;;;;;;;;;;4917522;29;20448;-67
2023/09/03 00:39:49;;;;;;;7.70;1.93;;;;;;;;;;4916764;29;20480;-66
2023/09/03 00:42:16;;;;;;;6.83;1.83;;;;;;;;;;4917295;29;20467;-66
2023/09/03 00:44:44;;;;;;;7.17;1.60;;;;;;;;;;4916663;29;20436;-67
2023/09/03 00:47:11;;;;;;;6.10;1.23;;;;;;;;;;4916924;29;20477;-67
2023/09/03 00:49:42;;;;;;;6.40;1.40;;;;;;;;;;4916557;29;20477;-66
2023/09/03 00:52:09;;;;;;;6.80;1.70;;;;;;;;;;4904549;29;20453;-66
2023/09/03 00:54:37;;;;;;;6.20;1.60;;;;;;;;;;4914445;29;20509;-66
2023/09/03 00:57:05;;;;;;;6.30;1.33;;;;;;;;;;4916647;29;20448;-66
2023/09/03 00:59:32;;;;;;;9.70;2.50;;;;;;;;;;4916841;29;21010;-67
2023/09/03 01:01:59;;;;;;;8.40;1.40;;;;;;;;;;4916273;29;20455;-67
2023/09/03 01:04:26;;;;;;;6.27;1.63;;;;;;;;;;4916717;29;20520;-67
2023/09/03 01:06:55;;;;;;;5.93;1.17;;;;;;;;;;4917129;29;20532;-66
2023/09/03 01:09:22;;;;;;;6.60;1.60;;;;;;;;;;4915285;29;20472;-66
2023/09/03 01:11:51;;;;;;;6.73;1.90;;;;;;;;;;4916562;29;20457;-66
2023/09/03 01:14:24;;;;;;;7.10;1.83;;;;;;;;;;4916294;29;20448;-67
2023/09/03 01:16:54;;;;;;;6.20;1.67;;;;;;;;;;4915251;29;20459;-67
2023/09/03 01:19:30;;;;;;;6.90;1.43;;;;;;;;;;4916234;29;20874;-67
2023/09/03 01:22:06;;;;;;;6.73;1.77;;;;;;;;;;4916759;29;20521;-65
2023/09/03 01:24:41;;;;;;;6.27;2.10;;;;;;;;;;4916483;29;20456;-67
2023/09/03 01:27:15;;;;;;;6.10;1.40;;;;;;;;;;4915216;29;20448;-67
2023/09/03 01:29:44;;;;;;;9.50;1.30;;;;;;;;;;4915863;29;20488;-66
2023/09/03 01:32:12;;;;;;;5.70;1.33;;;;;;;;;;4916153;29;20448;-66
2023/09/03 01:34:40;;;;;;;6.33;1.83;;;;;;;;;;4915059;29;20449;-67
2023/09/03 01:37:08;;;;;;;8.37;1.70;;;;;;;;;;4916294;29;20508;-66
2023/09/03 01:39:35;;;;;;;6.00;1.27;;;;;;;;;;4915608;29;20468;-65
2023/09/03 01:42:02;;;;;;;6.43;1.30;;;;;;;;;;4916493;29;20459;-67
2023/09/03 01:44:29;;;;;;;6.33;1.87;;;;;;;;;;4915584;29;20445;-67
2023/09/03 01:47:02;;;;;;;7.17;2.10;;;;;;;;;;4915611;29;20448;-66
2023/09/03 01:49:31;;;;;;;7.40;1.80;;;;;;;;;;4915683;29;20473;-67
2023/09/03 01:52:05;;;;;;;7.40;2.07;;;;;;;;;;4915760;29;20499;-66
2023/09/03 01:54:35;;;;;;;6.70;1.80;;;;;;;;;;4915862;29;20452;-66
2023/09/03 01:57:04;;;;;;;8.03;2.00;;;;;;;;;;4916385;29;20459;-67
2023/09/03 01:59:35;;;;;;;7.27;1.60;;;;;;;;;;4916038;29;20464;-66
2023/09/03 02:02:04;;;;;;;6.70;1.70;;;;;;;;;;4916086;29;20448;-66
2023/09/03 02:04:31;;;;;;;7.17;1.80;;;;;;;;;;4915138;29;20529;-66
2023/09/03 02:06:58;;;;;;;6.37;1.43;;;;;;;;;;4915554;29;20453;-65
2023/09/03 02:09:25;;;;;;;7.13;1.73;;;;;;;;;;4915108;29;20852;-66
2023/09/03 02:11:52;;;;;;;6.70;1.70;;;;;;;;;;4915806;29;20448;-67
2023/09/03 02:14:19;;;;;;;6.20;1.50;;;;;;;;;;4915821;29;20536;-66
2023/09/03 02:16:46;;;;;;;7.37;1.90;;;;;;;;;;4915396;29;20457;-65
2023/09/03 02:19:15;;;;;;;8.40;1.77;;;;;;;;;;4914827;29;20461;-66
2023/09/03 02:21:42;;;;;;;6.30;1.67;;;;;;;;;;4915175;29;20448;-66
2023/09/03 02:24:09;;;;;;;6.23;1.30;;;;;;;;;;4914951;29;20482;-67
2023/09/03 02:26:41;;;;;;;6.60;1.70;;;;;;;;;;4914962;29;20948;-66
2023/09/03 02:29:08;;;;;;;7.00;1.90;;;;;;;;;;4915250;29;20516;-65
2023/09/03 02:31:35;;;;;;;6.70;1.87;;;;;;;;;;4915385;29;20483;-65
2023/09/03 02:34:03;;;;;;;6.33;1.63;;;;;;;;;;4914434;29;20451;-66
2023/09/03 02:36:33;;;;;;;6.37;1.67;;;;;;;;;;4915316;29;20447;-65
2023/09/03 02:39:01;;;;;;;7.23;1.70;;;;;;;;;;4914638;29;20916;-66
2023/09/03 02:41:29;;;;;;;6.90;1.57;;;;;;;;;;4915273;29;20456;-65
2023/09/03 02:43:57;;;;;;;11.20;1.80;;;;;;;;;;4914591;29;20453;-66
2023/09/03 02:46:24;;;;;;;6.30;1.40;;;;;;;;;;4914426;29;20481;-66
2023/09/03 02:48:51;;;;;;;6.80;1.70;;;;;;;;;;4915545;29;20492;-67
2023/09/03 02:51:18;;;;;;;6.30;1.37;;;;;;;;;;4915134;29;20447;-66
2023/09/03 02:53:47;;;;;;;6.17;1.67;;;;;;;;;;4914363;29;20464;-66
2023/09/03 02:56:14;;;;;;;8.77;1.93;;;;;;;;;;4914103;29;20444;-66
2023/09/03 02:58:41;;;;;;;7.90;1.97;;;;;;;;;;4914991;29;20503;-66
2023/09/03 03:01:09;;;;;;;8.67;2.23;;;;;;;;;;4914464;29;20444;-66
2023/09/03 03:03:36;;;;;;;6.30;1.23;;;;;;;;;;4914386;29;20915;-66
2023/09/03 03:06:03;;;;;;;8.93;1.73;;;;;;;;;;4914945;29;20944;-67
2023/09/03 03:08:30;;;;;;;6.70;1.60;;;;;;;;;;4914802;29;20491;-67
2023/09/03 03:11:06;;;;;;;11.90;1.50;;;;;;;;;;4915003;29;20952;-66
2023/09/03 03:13:33;;;;;;;6.70;1.40;;;;;;;;;;4913836;29;20449;-66
2023/09/03 03:16:04;;;;;;;7.10;1.97;;;;;;;;;;4915346;29;20454;-66
2023/09/03 03:18:32;;;;;;;7.90;2.00;;;;;;;;;;4914708;29;20451;-66
2023/09/03 03:21:05;;;;;;;7.27;1.80;;;;;;;;;;4914013;29;20471;-66
2023/09/03 03:23:32;;;;;;;6.90;1.43;;;;;;;;;;4914827;29;20865;-66
2023/09/03 03:25:59;;;;;;;7.33;1.53;;;;;;;;;;4914438;29;20460;-66
2023/09/03 03:28:27;;;;;;;7.67;1.40;;;;;;;;;;4912810;29;20834;-65
2023/09/03 03:30:55;;;;;;;9.03;2.03;;;;;;;;;;4914694;29;20836;-66
2023/09/03 03:33:22;;;;;;;8.50;1.70;;;;;;;;;;4914218;29;20504;-66
2023/09/03 03:35:49;;;;;;;8.00;1.40;;;;;;;;;;4906357;29;20453;-66
2023/09/03 03:38:16;;;;;;;8.37;1.60;;;;;;;;;;4907794;29;20927;-65
2023/09/03 03:40:43;;;;;;;8.13;1.50;;;;;;;;;;4913991;29;20456;-66
2023/09/03 03:43:10;;;;;;;8.40;2.30;;;;;;;;;;4914396;29;20449;-67
2023/09/03 03:45:39;;;;;;;9.37;1.70;;;;;;;;;;4914863;29;20511;-66
2023/09/03 03:48:06;;;;;;;8.80;1.83;;;;;;;;;;4914202;29;20496;-66
2023/09/03 03:50:33;;;;;;;10.27;1.73;;;;;;;;;;4913879;29;20485;-67
2023/09/03 03:53:00;;;;;;;8.17;1.83;;;;;;;;;;4914173;29;20445;-66
2023/09/03 03:55:27;;;;;;;10.17;2.17;;;;;;;;;;4913978;29;20452;-67
2023/09/03 03:57:54;;;;;;;8.57;1.43;;;;;;;;;;4915398;29;20471;-67
2023/09/03 04:00:21;;;;;;;8.10;1.70;;;;;;;;;;4918228;29;20475;-67
2023/09/03 04:02:50;;;;;;;7.90;1.40;;;;;;;;;;4918337;29;20448;-67
2023/09/03 04:05:17;;;;;;;8.57;1.80;;;;;;;;;;4917895;29;20445;-66
2023/09/03 04:07:44;;;;;;;7.80;1.40;;;;;;;;;;4917204;29;20459;-65
2023/09/03 04:10:11;;;;;;;8.20;1.77;;;;;;;;;;4917665;29;20520;-66
2023/09/03 04:12:38;;;;;;;8.80;1.63;;;;;;;;;;4918358;29;20452;-68
2023/09/03 04:15:06;;;;;;;7.57;1.20;;;;;;;;;;4917028;29;21007;-66
2023/09/03 04:17:33;;;;;;;9.20;1.47;;;;;;;;;;4917364;29;20479;-65
2023/09/03 04:20:05;;;;;;;12.67;1.53;;;;;;;;;;4917815;29;20468;-65
2023/09/03 04:22:32;;;;;;;9.30;2.13;;;;;;;;;;4917564;29;20505;-66
2023/09/03 04:24:59;;;;;;;8.70;1.73;;;;;;;;;;4917860;29;20461;-67
2023/09/03 04:27:26;;;;;;;8.60;1.73;;;;;;;;;;4916525;29;20455;-66
2023/09/03 04:29:54;;;;;;;8.40;1.67;;;;;;;;;;4917222;29;20909;-66
2023/09/03 04:32:21;;;;;;;7.50;1.20;;;;;;;;;;4916798;29;20456;-66
2023/09/03 04:34:48;;;;;;;10.40;1.60;;;;;;;;;;4917162;29;20445;-66
2023/09/03 04:37:16;;;;;;;8.67;1.63;;;;;;;;;;4916892;29;20448;-66
2023/09/03 04:39:43;;;;;;;8.80;1.63;;;;;;;;;;4917479;29;20468;-66
2023/09/03 04:42:10;;;;;;;7.77;1.43;;;;;;;;;;4917400;29;20971;-66
2023/09/03 04:44:39;;;;;;;7.63;1.33;;;;;;;;;;4916820;29;20527;-66
2023/09/03 04:47:06;;;;;;;8.20;1.60;;;;;;;;;;4916276;29;20932;-66
2023/09/03 04:49:34;;;;;;;8.77;1.50;;;;;;;;;;4915840;29;20496;-66
2023/09/03 04:52:01;;;;;;;8.50;1.60;;;;;;;;;;4916925;29;20455;-66
2023/09/03 04:54:31;;;;;;;9.13;1.60;;;;;;;;;;4914639;29;20445;-66
2023/09/03 04:56:58;;;;;;;10.50;2.60;;;;;;;;;;4917140;29;20874;-66
2023/09/03 04:59:25;;;;;;;8.00;1.60;;;;;;;;;;4917494;29;20559;-67
2023/09/03 05:01:52;;;;;;;8.80;2.17;;;;;;;;;;4916201;29;21029;-66
2023/09/03 05:04:19;;;;;;;8.40;1.80;;;;;;;;;;4916542;29;20877;-67
2023/09/03 05:06:46;;;;;;;8.30;1.40;;;;;;;;;;4916877;29;20436;-67
2023/09/03 05:09:13;;;;;;;7.60;1.20;;;;;;;;;;4915273;29;20520;-65
2023/09/03 05:11:42;;;;;;;8.10;1.67;;;;;;;;;;4916800;29;20825;-65
2023/09/03 05:14:10;;;;;;;9.90;2.07;;;;;;;;;;4917155;29;20567;-66
2023/09/03 05:16:37;;;;;;;7.27;1.10;;;;;;;;;;4916460;29;20464;-66
2023/09/03 05:19:06;;;;;;;10.00;2.07;;;;;;;;;;4916615;29;20472;-66
2023/09/03 05:21:33;;;;;;;7.80;1.13;;;;;;;;;;4915971;29;20457;-66
2023/09/03 05:24:00;;;;;;;7.93;1.43;;;;;;;;;;4916343;29;20501;-65
2023/09/03 05:26:27;;;;;;;8.83;1.77;;;;;;;;;;4916116;29;20889;-65
2023/09/03 05:28:56;;;;;;;8.43;1.63;;;;;;;;;;4915506;29;20491;-66
2023/09/03 05:31:23;;;;;;;8.70;2.30;;;;;;;;;;4904152;29;20445;-67
2023/09/03 05:33:50;;;;;;;7.57;1.20;;;;;;;;;;4915834;29;20441;-65
2023/09/03 05:36:17;;;;;;;8.93;1.67;;;;;;;;;;4916550;29;20448;-66
2023/09/03 05:38:44;;;;;;;8.37;1.77;;;;;;;;;;4913427;29;20460;-67
2023/09/03 05:41:11;;;;;;;8.90;2.27;;;;;;;;;;4915579;29;20465;-66
2023/09/03 05:43:38;;;;;;;8.80;1.90;;;;;;;;;;4915537;29;20457;-65
2023/09/03 05:46:07;;;;;;;8.00;1.73;;;;;;;;;;4916719;29;20817;-66
2023/09/03 05:48:34;;;;;;;9.57;2.10;;;;;;;;;;4915487;29;20471;-67
2023/09/03 05:51:03;;;;;;;8.20;1.53;;;;;;;;;;4916410;29;20453;-65
2023/09/03 05:53:30;;;;;;;8.00;1.27;;;;;;;;;;4916456;29;20539;-66
2023/09/03 05:56:04;;;;;;;8.00;1.77;;;;;;;;;;4915814;29;20444;-66
2023/09/03 05:58:31;;;;;;;7.47;1.57;;;;;;;;;;4913709;29;20512;-68
2023/09/03 06:00:58;;;;;;;7.53;1.40;;;;;;;;;;4915237;29;20460;-64
2023/09/03 06:03:27;;;;;;;8.27;2.00;;;;;;;;;;4914931;29;20449;-67
2023/09/03 06:05:54;;;;;;;7.80;1.43;;;;;;;;;;4915123;29;20449;-66
2023/09/03 06:08:21;;;;;;;7.80;1.60;;;;;;;;;;4915895;29;20488;-66
2023/09/03 06:10:48;;;;;;;7.60;2.07;;;;;;;;;;4916031;29;20487;-66
2023/09/03 06:13:15;;;;;;;11.40;2.00;;;;;;;;;;4915501;29;20984;-67
2023/09/03 06:15:42;;;;;;;9.43;1.77;;;;;;;;;;4915674;29;20923;-65
2023/09/03 06:18:09;;;;;;;8.07;1.87;;;;;;;;;;4916417;29;20465;-65
2023/09/03 06:20:38;;;;;;;7.33;1.20;;;;;;;;;;4913904;29;20460;-66
2023/09/03 06:23:05;;;;;;;7.53;1.23;;;;;;;;;;4914552;29;20453;-66
2023/09/03 06:25:32;;;;;;;7.10;1.43;;;;;;;;;;4915366;29;20452;-67
2023/09/03 06:27:59;;;;;;;7.10;1.40;;;;;;;;;;4915528;29;20540;-66
2023/09/03 06:30:26;;;;;;;7.80;1.53;;;;;;;;;;4915473;29;20600;-66
2023/09/03 06:32:53;;;;;;;9.67;2.20;;;;;;;;;;4915712;29;20453;-65
2023/09/03 06:35:20;;;;;;;9.27;2.13;;;;;;;;;;4915214;29;20975;-66
2023/09/03 06:37:49;;;;;;;7.37;1.73;;;;;;;;;;4905732;29;20469;-67
2023/09/03 06:40:16;;;;;;;7.03;1.70;;;;;;;;;;4913693;29;20527;-66
2023/09/03 06:42:43;;;;;;;14.10;2.50;;;;;;;;;;4914405;29;20451;-67
2023/09/03 06:45:11;;;;;;;10.17;2.70;;;;;;;;;;4913786;29;20441;-66
2023/09/03 06:47:39;;;;;;;7.27;2.10;;;;;;;;;;4915116;29;20449;-67
2023/09/03 06:50:06;;;;;;;7.47;2.13;;;;;;;;;;4915310;29;20655;-67
2023/09/03 06:52:35;;;;;;;8.20;1.67;;;;;;;;;;4914771;29;20445;-65
2023/09/03 06:55:04;;;;;;;6.47;1.60;;;;;;;;;;4915372;29;20441;-67
2023/09/03 06:57:31;;;;;;;8.40;2.07;;;;;;;;;;4914555;29;20456;-67
2023/09/03 06:59:59;;;;;;;5.67;1.93;;;;;;;;;;4914185;29;20465;-67
2023/09/03 07:02:26;;;;;;;7.27;2.23;;;;;;;;;;4915432;29;20444;-65
2023/09/03 07:04:56;;;;;;;6.20;1.60;;;;;;;;;;4915337;29;20448;-64
2023/09/03 07:07:23;;;;;;;6.70;2.20;;;;;;;;;;4915062;29;20457;-66
2023/09/03 07:09:50;;;;;;;6.10;1.70;;;;;;;;;;4914810;29;20495;-66
2023/09/03 07:12:18;;;;;;;7.17;2.10;;;;;;;;;;4914773;29;20990;-63
2023/09/03 07:14:45;;;;;;;8.90;2.17;;;;;;;;;;4914477;29;20448;-65
2023/09/03 07:17:12;;;;;;;6.03;1.97;;;;;;;;;;4914338;29;20460;-66
2023/09/03 07:19:40;;;;;;;5.10;1.70;;;;;;;;;;4914868;29;20963;-66
2023/09/03 07:22:07;;;;;;;4.60;1.63;;;;;;;;;;4915393;29;20908;-66
2023/09/03 07:24:34;;;;;;;5.10;1.50;;;;;;;;;;4914546;29;20449;-65
2023/09/03 07:27:01;;;;;;;6.93;2.00;;;;;;;;;;4914252;29;20935;-66
2023/09/03 07:29:29;;;;;;;5.80;2.20;;;;;;;;;;4901633;29;20528;-65
2023/09/03 07:31:56;;;;;;;4.80;2.10;;;;;;;;;;4914883;29;20960;-65
2023/09/03 07:34:23;;;;;;;6.27;2.20;;;;;;;;;;4917834;29;20452;-65
2023/09/03 07:36:50;;;;;;;8.33;2.30;;;;;;;;;;4917819;29;20496;-65
2023/09/03 07:39:17;;;;;;;5.43;2.23;;;;;;;;;;4917887;29;20522;-66
2023/09/03 07:41:44;;;;;;;5.70;2.60;;;;;;;;;;4918520;29;20464;-66
2023/09/03 07:44:11;;;;;;;7.93;2.20;;;;;;;;;;4918653;29;20440;-67
2023/09/03 07:46:40;;;;;;;4.20;2.00;;;;;;;;;;4918094;29;20441;-66
2023/09/03 07:49:07;;;;;;;5.50;2.30;;;;;;;;;;4917071;29;20460;-66
2023/09/03 07:51:34;;;;;;;9.20;2.30;;;;;;;;;;4918098;29;20948;-66
2023/09/03 07:54:01;;;;;;;4.47;2.33;;;;;;;;;;4918093;29;20448;-67
2023/09/03 07:56:30;;;;;;;5.23;2.40;;;;;;;;;;4912494;29;20442;-65
2023/09/03 07:58:57;;;;;;;5.77;3.17;;;;;;;;;;4918485;29;20468;-65
2023/09/03 08:01:26;;;;;;;5.60;2.87;;;;;;;;;;4917978;29;20456;-66
2023/09/03 08:03:56;;;;;;;5.13;2.93;;;;;;;;;;4917905;29;20484;-67
2023/09/03 08:06:23;;;;;;;4.63;2.20;;;;;;;;;;4917761;29;20444;-66
2023/09/03 08:08:54;;;;;;;5.87;2.43;;;;;;;;;;4917408;29;20531;-67
2023/09/03 08:11:21;;;;;;;5.20;2.57;;;;;;;;;;4918095;29;20494;-67
2023/09/03 08:13:51;;;;;;;4.70;2.40;;;;;;;;;;4916470;29;20490;-67
2023/09/03 08:16:18;;;;;;;5.07;2.20;;;;;;;;;;4918314;29;20449;-66
2023/09/03 08:18:45;;;;;;;5.07;2.73;;;;;;;;;;4918070;29;20483;-67
2023/09/03 08:21:14;;;;;;;6.30;2.37;;;;;;;;;;4918446;29;20448;-67
2023/09/03 08:23:41;;;;;;;4.33;2.40;;;;;;;;;;4918655;29;20560;-66
2023/09/03 08:26:08;;;;;;;5.17;2.57;;;;;;;;;;4917572;29;20452;-67
2023/09/03 08:28:35;;;;;;;5.60;2.60;;;;;;;;;;4919194;29;20452;-66
2023/09/03 08:31:03;;;;;;;4.70;2.40;;;;;;;;;;4916882;29;20607;-65
2023/09/03 08:33:30;;;;;;;4.83;2.63;;;;;;;;;;4917301;29;20811;-66
2023/09/03 08:35:57;;;;;;;4.00;2.20;;;;;;;;;;4917216;29;20444;-67
2023/09/03 08:38:25;;;;;;;4.90;2.40;;;;;;;;;;4907292;29;20441;-66
2023/09/03 08:40:52;;;;;;;4.97;2.63;;;;;;;;;;4917567;29;20441;-66
2023/09/03 08:43:20;;;;;;;5.97;3.20;;;;;;;;;;4916577;29;20452;-67
2023/09/03 08:45:51;;;;;;;3.80;2.20;;;;;;;;;;4916568;29;20449;-66
2023/09/03 08:48:18;;;;;;;4.50;2.47;;;;;;;;;;4915396;29;20955;-66
2023/09/03 08:50:46;;;;;;;4.67;2.33;;;;;;;;;;4917278;29;20734;-67
2023/09/03 08:53:13;;;;;;;5.83;2.97;;;;;;;;;;4917127;29;20807;-67
2023/09/03 08:55:41;;;;;;;7.70;2.60;;;;;;;;;;4917051;29;20870;-67
2023/09/03 08:58:09;;;;;;;5.53;2.60;;;;;;;;;;4911930;29;20726;-66
2023/09/03 09:00:36;;;;;;;4.60;2.50;;;;;;;;;;4916166;29;20464;-66
2023/09/03 09:03:07;;;;;;;6.07;2.30;;;;;;;;;;4916946;29;20531;-65
2023/09/03 09:05:35;;;;;;;4.10;2.30;;;;;;;;;;4916517;29;20873;-66
2023/09/03 09:08:03;;;;;;;5.23;2.20;;;;;;;;;;4916606;29;20472;-66
2023/09/03 09:10:32;;;;;;;5.10;2.23;;;;;;;;;;4916436;29;20552;-67
2023/09/03 09:13:04;;;;;;;3.20;1.93;;;;;;;;;;4917104;29;20500;-66
2023/09/03 09:15:31;;;;;;;5.33;1.93;;;;;;;;;;4917359;29;20460;-66
2023/09/03 09:17:58;;;;;;;11.83;2.40;;;;;;;;;;4916045;29;20456;-67
2023/09/03 09:20:25;;;;;;;3.50;1.63;;;;;;;;;;4916674;29;20468;-66
2023/09/03 09:22:53;;;;;;;3.97;2.43;;;;;;;;;;4909794;29;20450;-65
2023/09/03 09:25:21;;;;;;;3.57;1.80;;;;;;;;;;4908765;29;20874;-67
2023/09/03 09:27:48;;;;;;;3.00;1.37;;;;;;;;;;4914198;29;20896;-66
2023/09/03 09:30:19;;;;;;;5.77;2.00;;;;;;;;;;4916244;29;20898;-66
2023/09/03 09:32:46;;;;;;;3.10;1.70;;;;;;;;;;4916314;29;20925;-66
2023/09/03 09:35:23;;;;;;;4.43;1.80;;;;;;;;;;4915909;29;20924;-66
2023/09/03 09:37:50;;;;;;;2.80;1.43;;;;;;;;;;4913108;29;20874;-67
2023/09/03 09:40:26;;;;;;;3.23;1.80;;;;;;;;;;4915485;29;20487;-64
2023/09/03 09:42:54;;;;;;;3.40;1.73;;;;;;;;;;4916372;29;20487;-66
2023/09/03 09:45:22;;;;;;;2.63;1.73;;;;;;;;;;4916119;29;20487;-66
2023/09/03 09:48:03;;;;;;;2.83;1.83;;;;;;;;;;4915826;29;20799;-66
2023/09/03 09:50:33;;;;;;;2.57;1.40;;;;;;;;;;4915535;29;20516;-66
2023/09/03 09:53:00;;;;;;;4.97;1.90;;;;;;;;;;4913423;29;20440;-66
2023/09/03 09:55:27;;;;;;;2.70;1.40;;;;;;;;;;4915969;29;20572;-66
2023/09/03 09:57:54;;;;;;;4.07;1.80;;;;;;;;;;4915568;29;20484;-66
2023/09/03 10:00:34;;;;;;;2.67;1.13;;;;;;;;;;4915965;29;20469;-65
2023/09/03 10:03:01;;;;;;;2.73;1.27;;;;;;;;;;4915287;29;20448;-65
2023/09/03 10:05:28;;;;;;;2.47;1.20;;;;;;;;;;4915569;29;20905;-66
2023/09/03 10:07:56;;;;;;;2.80;1.43;;;;;;;;;;4915806;29;20448;-66
2023/09/03 10:10:23;;;;;;;2.87;1.50;;;;;;;;;;4915241;29;20485;-65
2023/09/03 10:12:50;;;;;;;2.73;1.30;;;;;;;;;;4915412;29;21003;-66
2023/09/03 10:15:17;;;;;;;3.20;1.40;;;;;;;;;;4915066;29;21213;-66
2023/09/03 10:17:49;;;;;;;2.63;1.20;;;;;;;;;;4913158;29;20476;-66
2023/09/03 10:20:17;;;;;;;2.27;0.90;;;;;;;;;;4915263;29;20879;-65
2023/09/03 10:22:46;;;;;;;2.50;1.23;;;;;;;;;;4915167;29;20455;-64
2023/09/03 10:25:14;;;;;;;2.30;1.20;;;;;;;;;;4915229;29;20963;-64
2023/09/03 10:27:45;;;;;;;2.23;1.10;;;;;;;;;;4915578;29;20838;-66
2023/09/03 10:30:15;;;;;;;2.60;1.40;;;;;;;;;;4914391;29;20496;-64
2023/09/03 10:32:43;;;;;;;2.37;1.10;;;;;;;;;;4914877;29;20775;-65
2023/09/03 10:35:11;;;;;;;2.67;1.53;;;;;;;;;;4916163;29;20479;-64
2023/09/03 10:37:39;;;;;;;3.23;1.30;;;;;;;;;;4909581;29;20478;-65
2023/09/03 10:40:29;;;;;;;2.57;1.07;;;;;;;;;;4908720;29;20472;-65
2023/09/03 10:43:18;;;;;;;2.10;1.10;;;;;;;;;;4901957;29;20465;-63
2023/09/03 10:46:00;;;;;;;2.30;1.40;;;;;;;;;;4913745;29;20536;-67
2023/09/03 10:48:27;;;;;;;2.53;1.40;;;;;;;;;;4913966;29;20452;-67
2023/09/03 10:50:56;;;;;;;2.67;1.00;;;;;;;;;;4914434;29;21010;-68
2023/09/03 10:53:35;;;;;;;2.20;1.00;;;;;;;;;;4915142;29;20456;-68
2023/09/03 10:56:10;;;;;;;1.93;1.20;;;;;;;;;;4914920;29;20443;-68
2023/09/03 10:58:52;;;;;;;1.80;0.90;;;;;;;;;;4913972;29;20447;-67
2023/09/03 11:01:20;;;;;;;2.03;0.90;;;;;;;;;;4914333;29;20903;-68
2023/09/03 11:03:48;;;;;;;1.90;0.80;;;;;;;;;;4914627;29;20965;-67
2023/09/03 11:06:18;;;;;;;2.47;1.00;;;;;;;;;;4914160;29;20476;-68
2023/09/03 11:08:45;;;;;;;2.07;0.90;;;;;;;;;;4913960;29;20460;-68
2023/09/03 11:11:12;;;;;;;2.37;0.80;;;;;;;;;;4901919;29;20491;-68
2023/09/03 11:13:39;;;;;;;2.30;1.10;;;;;;;;;;4915089;29;20455;-69
2023/09/03 11:16:07;;;;;;;2.00;0.87;;;;;;;;;;4902416;29;20479;-68
2023/09/03 11:18:34;;;;;;;1.63;0.83;;;;;;;;;;4908408;29;20461;-68
2023/09/03 11:21:01;;;;;;;1.80;0.80;;;;;;;;;;4915173;29;20512;-68
2023/09/03 11:23:30;;;;;;;2.00;0.80;;;;;;;;;;4908098;29;20923;-68
2023/09/03 11:25:57;;;;;;;2.23;1.00;;;;;;;;;;4913874;29;21008;-68
2023/09/03 11:28:24;;;;;;;1.90;0.90;;;;;;;;;;4914140;29;20448;-68
2023/09/03 11:31:00;;;;;;;2.57;1.00;;;;;;;;;;4915437;29;20489;-68
2023/09/03 11:33:28;;;;;;;2.20;1.13;;;;;;;;;;4900240;29;20448;-68
2023/09/03 11:35:55;;;;;;;2.30;0.93;;;;;;;;;;4914721;29;20810;-67
2023/09/03 11:38:25;;;;;;;1.90;0.90;;;;;;;;;;4914345;29;20455;-68
2023/09/03 11:40:56;;;;;;;2.10;1.10;;;;;;;;;;4914295;29;20440;-69
2023/09/03 11:43:23;;;;;;;1.70;1.00;;;;;;;;;;4914382;29;20451;-68
2023/09/03 11:45:50;;;;;;;1.93;1.10;;;;;;;;;;4913366;29;20548;-68
2023/09/03 11:48:24;;;;;;;1.80;1.03;;;;;;;;;;4914663;29;20456;-68
2023/09/03 11:50:51;;;;;;;1.80;1.10;;;;;;;;;;4914938;29;20491;-68
2023/09/03 11:53:18;;;;;;;1.73;0.90;;;;;;;;;;4913849;29;20536;-68
2023/09/03 11:55:47;;;;;;;1.43;0.70;;;;;;;;;;4914417;29;20452;-67
2023/09/03 11:58:17;;;;;;;2.80;0.90;;;;;;;;;;4913814;29;20545;-68
2023/09/03 12:00:45;;;;;;;2.23;1.10;;;;;;;;;;4914771;29;20935;-68
2023/09/03 12:03:12;;;;;;;2.23;1.27;;;;;;;;;;4913937;29;20979;-68
2023/09/03 12:05:39;;;;;;;2.40;0.90;;;;;;;;;;4913402;29;20448;-68
2023/09/03 12:08:07;;;;;;;1.97;1.00;;;;;;;;;;4914434;29;20443;-68
2023/09/03 12:10:34;;;;;;;2.27;1.13;;;;;;;;;;4913956;29;20496;-68
2023/09/03 12:13:01;;;;;;;2.27;1.37;;;;;;;;;;4913647;29;20448;-69
2023/09/03 12:15:31;;;;;;;1.70;0.90;;;;;;;;;;4914792;29;20504;-68
2023/09/03 12:18:08;;;;;;;1.97;1.00;;;;;;;;;;4913928;29;20821;-68
2023/09/03 12:20:36;;;;;;;3.20;1.43;;;;;;;;;;4915228;29;20474;-69
2023/09/03 12:23:09;;;;;;;1.83;1.30;;;;;;;;;;4916250;29;20486;-68
2023/09/03 12:25:36;;;;;;;1.97;1.13;;;;;;;;;;4905725;29;20454;-68
2023/09/03 12:28:04;;;;;;;1.90;1.07;;;;;;;;;;4917559;29;21085;-68
2023/09/03 12:30:46;;;;;;;1.87;1.00;;;;;;;;;;4916477;29;20467;-68
2023/09/03 12:33:15;;;;;;;2.43;1.20;;;;;;;;;;4917020;29;20443;-68
2023/09/03 12:35:42;;;;;;;1.60;0.83;;;;;;;;;;4917413;29;20559;-68
2023/09/03 12:38:09;;;;;;;2.03;0.90;;;;;;;;;;4912743;29;21083;-68
2023/09/03 12:40:36;;;;;;;2.13;1.40;;;;;;;;;;4907937;29;20476;-68
2023/09/03 12:43:03;;;;;;;2.10;1.00;;;;;;;;;;4916805;29;20451;-68
2023/09/03 12:45:30;;;;;;;3.10;1.63;;;;;;;;;;4905785;29;20441;-68
2023/09/03 12:47:58;;;;;;;4.50;1.67;;;;;;;;;;4915092;29;20451;-69
2023/09/03 12:50:26;;;;;;;1.80;1.30;;;;;;;;;;4917132;29;20468;-69
2023/09/03 12:52:56;;;;;;;3.20;1.13;;;;;;;;;;4916694;29;20492;-68
2023/09/03 12:55:23;;;;;;;1.80;1.13;;;;;;;;;;4916689;29;20534;-68
2023/09/03 12:57:50;;;;;;;2.60;1.20;;;;;;;;;;4916435;29;20448;-69
2023/09/03 13:00:17;;;;;;;2.57;1.37;;;;;;;;;;4916990;29;20467;-68
2023/09/03 13:02:44;;;;;;;2.37;1.53;;;;;;;;;;4917119;29;20444;-68
2023/09/03 13:05:11;;;;;;;1.83;1.00;;;;;;;;;;4916309;29;20448;-68
2023/09/03 13:07:40;;;;;;;3.60;1.20;;;;;;;;;;4916384;29;20531;-68
2023/09/03 13:10:07;;;;;;;2.00;1.17;;;;;;;;;;4916609;29;20891;-68
2023/09/03 13:12:34;;;;;;;2.13;1.43;;;;;;;;;;4916557;29;20840;-69
2023/09/03 13:15:01;;;;;;;1.60;0.97;;;;;;;;;;4916261;29;20448;-68
2023/09/03 13:17:30;;;;;;;3.97;1.50;;;;;;;;;;4915761;29;20455;-70
2023/09/03 13:19:57;;;;;;;2.60;1.23;;;;;;;;;;4916328;29;20566;-69
2023/09/03 13:22:24;;;;;;;2.37;1.40;;;;;;;;;;4916488;29;20444;-68
2023/09/03 13:24:53;;;;;;;4.23;1.43;;;;;;;;;;4916091;29;20847;-68
2023/09/03 13:27:20;;;;;;;2.20;1.07;;;;;;;;;;4916566;29;20456;-68
2023/09/03 13:29:47;;;;;;;3.23;1.20;;;;;;;;;;4915592;29;20986;-67
2023/09/03 13:32:14;;;;;;;2.57;1.23;;;;;;;;;;4915476;29;20483;-68
2023/09/03 13:34:41;;;;;;;2.47;1.30;;;;;;;;;;4915463;29;20939;-69
2023/09/03 13:37:08;;;;;;;2.00;1.50;;;;;;;;;;4915939;29;20448;-68
2023/09/03 13:39:35;;;;;;;1.70;0.90;;;;;;;;;;4914215;29;20915;-68
2023/09/03 13:42:04;;;;;;;2.10;1.20;;;;;;;;;;4914092;29;20439;-69
2023/09/03 13:44:31;;;;;;;2.70;1.73;;;;;;;;;;4915946;29;20452;-68
2023/09/03 13:46:58;;;;;;;1.70;1.00;;;;;;;;;;4915973;29;20439;-68
2023/09/03 13:49:27;;;;;;;1.90;0.97;;;;;;;;;;4915679;29;20914;-68
2023/09/03 13:51:55;;;;;;;2.10;1.10;;;;;;;;;;4914895;29;20494;-68
2023/09/03 13:54:22;;;;;;;2.70;1.53;;;;;;;;;;4915628;29;20523;-68
2023/09/03 13:56:49;;;;;;;2.10;1.20;;;;;;;;;;4915675;29;20924;-69
2023/09/03 13:59:17;;;;;;;2.60;1.47;;;;;;;;;;4915332;29;20554;-69
2023/09/03 14:01:44;;;;;;;2.07;1.27;;;;;;;;;;4915764;29;20525;-68
2023/09/03 14:04:12;;;;;;;1.90;1.10;;;;;;;;;;4903750;29;20469;-69
2023/09/03 14:06:40;;;;;;;2.53;1.50;;;;;;;;;;4915510;29;20454;-68
2023/09/03 14:09:07;;;;;;;2.30;1.03;;;;;;;;;;4914216;29;20476;-67
2023/09/03 14:11:34;;;;;;;1.93;1.23;;;;;;;;;;4915630;29;20491;-67
2023/09/03 14:14:01;;;;;;;2.40;1.40;;;;;;;;;;4915444;29;20899;-68
2023/09/03 14:16:29;;;;;;;2.13;1.03;;;;;;;;;;4914456;29;20219;-67
2023/09/03 14:18:56;;;;;;;1.97;1.33;;;;;;;;;;4915527;29;20472;-67
2023/09/03 14:21:24;;;;;;;2.33;1.00;;;;;;;;;;4915634;29;20451;-68
2023/09/03 14:23:51;;;;;;;2.20;1.20;;;;;;;;;;4915246;29;20462;-67
2023/09/03 14:26:19;;;;;;;2.30;1.23;;;;;;;;;;4915048;29;20448;-67
2023/09/03 14:28:49;;;;;;;2.40;1.40;;;;;;;;;;4914304;29;20963;-69
2023/09/03 14:31:16;;;;;;;2.00;1.00;;;;;;;;;;4915296;29;20454;-69
2023/09/03 14:33:45;;;;;;;2.30;1.17;;;;;;;;;;4914724;29;20448;-69
2023/09/03 14:36:13;;;;;;;1.80;1.10;;;;;;;;;;4914850;29;20940;-69
2023/09/03 14:38:40;;;;;;;2.50;1.07;;;;;;;;;;4909432;29;20527;-69
2023/09/03 14:41:07;;;;;;;2.00;1.10;;;;;;;;;;4914835;29;20939;-68
2023/09/03 14:43:34;;;;;;;2.47;1.10;;;;;;;;;;4912838;29;20444;-68
2023/09/03 14:46:01;;;;;;;2.60;1.40;;;;;;;;;;4914432;29;20451;-68
2023/09/03 14:48:28;;;;;;;2.40;1.20;;;;;;;;;;4914913;29;20857;-68